sensor_id;sensor_type;location;lat;lon;timestamp;P1;durP1;ratioP1;P2;durP2;ratioP2
47772;SDS011;33534;51.028;13.716;2022-07-29T00:02:00;6.20;;;2.53;;
47772;SDS011;33534;51.028;13.716;2022-07-29T00:04:26;9.07;;;2.92;;
47772;SDS011;33534;51.028;13.716;2022-07-29T00:06:51;4.32;;;2.33;;
47772;SDS011;33534;51.028;13.716;2022-07-29T00:09:17;6.63;;;2.63;;
47772;SDS011;33534;51.028;13.716;2022-07-29T00:11:42;4.47;;;2.22;;
47772;SDS011;33534;51.028;13.716;2022-07-29T00:14:08;6.40;;;3.13;;
47772;SDS011;33534;51.028;13.716;2022-07-29T00:16:34;7.15;;;2.30;;
47772;SDS011;33534;51.028;13.716;2022-07-29T00:19:00;5.32;;;2.47;;
47772;SDS011;33534;51.028;13.716;2022-07-29T00:21:25;5.68;;;2.83;;
47772;SDS011;33534;51.028;13.716;2022-07-29T00:23:51;4.15;;;2.10;;
47772;SDS011;33534;51.028;13.716;2022-07-29T00:26:17;5.43;;;2.38;;
47772;SDS011;33534;51.028;13.716;2022-07-29T00:28:42;6.85;;;2.78;;
47772;SDS011;33534;51.028;13.716;2022-07-29T00:31:08;13.30;;;2.53;;
47772;SDS011;33534;51.028;13.716;2022-07-29T00:33:34;5.20;;;2.72;;
47772;SDS011;33534;51.028;13.716;2022-07-29T00:35:59;9.82;;;3.15;;
47772;SDS011;33534;51.028;13.716;2022-07-29T00:38:25;4.65;;;2.30;;
47772;SDS011;33534;51.028;13.716;2022-07-29T00:40:50;5.68;;;2.30;;
47772;SDS011;33534;51.028;13.716;2022-07-29T00:43:16;5.80;;;2.35;;
47772;SDS011;33534;51.028;13.716;2022-07-29T00:45:42;4.95;;;2.45;;
47772;SDS011;33534;51.028;13.716;2022-07-29T00:48:08;5.00;;;2.47;;
47772;SDS011;33534;51.028;13.716;2022-07-29T00:50:34;5.25;;;2.55;;
47772;SDS011;33534;51.028;13.716;2022-07-29T00:53:00;5.82;;;2.22;;
47772;SDS011;33534;51.028;13.716;2022-07-29T00:55:27;3.88;;;2.05;;
47772;SDS011;33534;51.028;13.716;2022-07-29T00:57:54;5.90;;;2.30;;
47772;SDS011;33534;51.028;13.716;2022-07-29T01:00:24;7.20;;;2.80;;
47772;SDS011;33534;51.028;13.716;2022-07-29T01:02:51;5.22;;;2.45;;
47772;SDS011;33534;51.028;13.716;2022-07-29T01:05:17;3.13;;;2.15;;
47772;SDS011;33534;51.028;13.716;2022-07-29T01:07:44;10.32;;;2.58;;
47772;SDS011;33534;51.028;13.716;2022-07-29T01:10:12;17.00;;;4.00;;
47772;SDS011;33534;51.028;13.716;2022-07-29T01:12:39;10.20;;;2.47;;
47772;SDS011;33534;51.028;13.716;2022-07-29T01:15:07;8.82;;;3.10;;
47772;SDS011;33534;51.028;13.716;2022-07-29T01:17:39;6.65;;;2.50;;
47772;SDS011;33534;51.028;13.716;2022-07-29T01:31:20;4.78;;;2.58;;
47772;SDS011;33534;51.028;13.716;2022-07-29T01:33:55;16.05;;;3.97;;
47772;SDS011;33534;51.028;13.716;2022-07-29T01:36:27;8.13;;;2.75;;
47772;SDS011;33534;51.028;13.716;2022-07-29T01:39:01;7.68;;;2.90;;
47772;SDS011;33534;51.028;13.716;2022-07-29T01:41:40;8.88;;;2.70;;
47772;SDS011;33534;51.028;13.716;2022-07-29T01:44:18;4.28;;;2.17;;
47772;SDS011;33534;51.028;13.716;2022-07-29T01:46:52;4.75;;;2.60;;
47772;SDS011;33534;51.028;13.716;2022-07-29T01:49:25;5.85;;;2.33;;
47772;SDS011;33534;51.028;13.716;2022-07-29T01:51:56;23.25;;;4.40;;
47772;SDS011;33534;51.028;13.716;2022-07-29T01:54:37;8.95;;;3.72;;
47772;SDS011;33534;51.028;13.716;2022-07-29T01:57:08;9.18;;;2.80;;
47772;SDS011;33534;51.028;13.716;2022-07-29T01:59:36;10.25;;;2.50;;
47772;SDS011;33534;51.028;13.716;2022-07-29T02:02:02;4.63;;;2.40;;
47772;SDS011;33534;51.028;13.716;2022-07-29T02:04:29;7.90;;;3.55;;
47772;SDS011;33534;51.028;13.716;2022-07-29T02:07:00;9.30;;;3.38;;
47772;SDS011;33534;51.028;13.716;2022-07-29T02:09:27;11.43;;;3.03;;
47772;SDS011;33534;51.028;13.716;2022-07-29T02:11:55;6.95;;;3.20;;
47772;SDS011;33534;51.028;13.716;2022-07-29T02:14:23;6.88;;;2.90;;
47772;SDS011;33534;51.028;13.716;2022-07-29T02:16:51;4.38;;;2.20;;
47772;SDS011;33534;51.028;13.716;2022-07-29T02:19:19;7.43;;;2.60;;
47772;SDS011;33534;51.028;13.716;2022-07-29T02:21:47;4.38;;;2.70;;
47772;SDS011;33534;51.028;13.716;2022-07-29T02:24:15;3.53;;;2.05;;
47772;SDS011;33534;51.028;13.716;2022-07-29T02:26:43;6.15;;;2.53;;
47772;SDS011;33534;51.028;13.716;2022-07-29T02:29:10;5.28;;;2.42;;
47772;SDS011;33534;51.028;13.716;2022-07-29T02:31:37;5.82;;;2.97;;
47772;SDS011;33534;51.028;13.716;2022-07-29T02:34:05;7.32;;;3.70;;
47772;SDS011;33534;51.028;13.716;2022-07-29T02:36:33;5.47;;;2.92;;
47772;SDS011;33534;51.028;13.716;2022-07-29T02:39:00;9.93;;;3.45;;
47772;SDS011;33534;51.028;13.716;2022-07-29T02:44:14;5.07;;;2.40;;
47772;SDS011;33534;51.028;13.716;2022-07-29T02:49:51;5.35;;;3.50;;
47772;SDS011;33534;51.028;13.716;2022-07-29T02:52:22;8.80;;;3.22;;
47772;SDS011;33534;51.028;13.716;2022-07-29T02:57:32;5.18;;;2.60;;
47772;SDS011;33534;51.028;13.716;2022-07-29T03:00:04;5.60;;;2.78;;
47772;SDS011;33534;51.028;13.716;2022-07-29T03:02:38;7.28;;;3.20;;
47772;SDS011;33534;51.028;13.716;2022-07-29T03:05:07;19.00;;;8.63;;
47772;SDS011;33534;51.028;13.716;2022-07-29T03:07:35;11.52;;;3.92;;
47772;SDS011;33534;51.028;13.716;2022-07-29T03:10:03;8.77;;;4.80;;
47772;SDS011;33534;51.028;13.716;2022-07-29T03:12:31;22.42;;;10.45;;
47772;SDS011;33534;51.028;13.716;2022-07-29T03:14:57;48.88;;;20.20;;
47772;SDS011;33534;51.028;13.716;2022-07-29T03:17:24;55.15;;;23.95;;
47772;SDS011;33534;51.028;13.716;2022-07-29T03:19:50;45.08;;;17.90;;
47772;SDS011;33534;51.028;13.716;2022-07-29T03:22:16;37.08;;;16.40;;
47772;SDS011;33534;51.028;13.716;2022-07-29T03:24:42;40.35;;;15.25;;
47772;SDS011;33534;51.028;13.716;2022-07-29T03:27:07;9.13;;;4.13;;
47772;SDS011;33534;51.028;13.716;2022-07-29T03:29:33;8.93;;;3.70;;
47772;SDS011;33534;51.028;13.716;2022-07-29T03:31:59;6.93;;;3.58;;
47772;SDS011;33534;51.028;13.716;2022-07-29T03:34:27;7.40;;;3.22;;
47772;SDS011;33534;51.028;13.716;2022-07-29T03:36:52;10.00;;;3.40;;
47772;SDS011;33534;51.028;13.716;2022-07-29T03:39:20;6.75;;;3.70;;
47772;SDS011;33534;51.028;13.716;2022-07-29T03:41:49;9.35;;;3.78;;
47772;SDS011;33534;51.028;13.716;2022-07-29T03:44:18;5.85;;;3.33;;
47772;SDS011;33534;51.028;13.716;2022-07-29T03:46:46;6.82;;;3.55;;
47772;SDS011;33534;51.028;13.716;2022-07-29T03:49:14;5.95;;;2.63;;
47772;SDS011;33534;51.028;13.716;2022-07-29T03:51:41;7.15;;;3.63;;
47772;SDS011;33534;51.028;13.716;2022-07-29T03:54:08;7.03;;;4.05;;
47772;SDS011;33534;51.028;13.716;2022-07-29T03:56:34;7.05;;;4.93;;
47772;SDS011;33534;51.028;13.716;2022-07-29T03:59:05;12.30;;;5.30;;
47772;SDS011;33534;51.028;13.716;2022-07-29T04:01:33;7.28;;;4.80;;
47772;SDS011;33534;51.028;13.716;2022-07-29T04:04:00;11.05;;;5.28;;
47772;SDS011;33534;51.028;13.716;2022-07-29T04:06:26;9.30;;;5.30;;
47772;SDS011;33534;51.028;13.716;2022-07-29T04:08:52;11.30;;;5.00;;
47772;SDS011;33534;51.028;13.716;2022-07-29T04:11:17;9.73;;;5.00;;
47772;SDS011;33534;51.028;13.716;2022-07-29T04:13:43;9.45;;;5.00;;
47772;SDS011;33534;51.028;13.716;2022-07-29T04:16:09;12.32;;;5.65;;
47772;SDS011;33534;51.028;13.716;2022-07-29T04:18:34;11.15;;;6.00;;
47772;SDS011;33534;51.028;13.716;2022-07-29T04:21:01;12.77;;;6.38;;
47772;SDS011;33534;51.028;13.716;2022-07-29T04:23:29;10.63;;;6.43;;
47772;SDS011;33534;51.028;13.716;2022-07-29T04:25:57;12.43;;;7.30;;
47772;SDS011;33534;51.028;13.716;2022-07-29T04:28:23;11.55;;;6.10;;
47772;SDS011;33534;51.028;13.716;2022-07-29T04:30:48;12.35;;;5.75;;
47772;SDS011;33534;51.028;13.716;2022-07-29T04:33:14;9.23;;;6.28;;
47772;SDS011;33534;51.028;13.716;2022-07-29T04:35:39;9.93;;;5.82;;
47772;SDS011;33534;51.028;13.716;2022-07-29T04:38:06;16.83;;;7.35;;
47772;SDS011;33534;51.028;13.716;2022-07-29T04:40:32;11.32;;;6.75;;
47772;SDS011;33534;51.028;13.716;2022-07-29T04:42:59;13.60;;;5.88;;
47772;SDS011;33534;51.028;13.716;2022-07-29T04:45:26;14.10;;;5.90;;
47772;SDS011;33534;51.028;13.716;2022-07-29T04:47:52;14.60;;;7.00;;
47772;SDS011;33534;51.028;13.716;2022-07-29T04:50:17;20.65;;;10.43;;
47772;SDS011;33534;51.028;13.716;2022-07-29T04:52:43;18.95;;;11.15;;
47772;SDS011;33534;51.028;13.716;2022-07-29T04:55:09;22.98;;;14.70;;
47772;SDS011;33534;51.028;13.716;2022-07-29T04:57:34;29.85;;;15.80;;
47772;SDS011;33534;51.028;13.716;2022-07-29T05:00:00;35.08;;;21.60;;
47772;SDS011;33534;51.028;13.716;2022-07-29T05:02:26;34.05;;;21.98;;
47772;SDS011;33534;51.028;13.716;2022-07-29T05:04:51;43.75;;;23.98;;
47772;SDS011;33534;51.028;13.716;2022-07-29T05:07:17;38.08;;;24.83;;
47772;SDS011;33534;51.028;13.716;2022-07-29T05:09:43;46.05;;;26.25;;
47772;SDS011;33534;51.028;13.716;2022-07-29T05:12:09;46.28;;;28.27;;
47772;SDS011;33534;51.028;13.716;2022-07-29T05:14:34;50.05;;;32.58;;
47772;SDS011;33534;51.028;13.716;2022-07-29T05:17:00;59.78;;;36.38;;
47772;SDS011;33534;51.028;13.716;2022-07-29T05:19:26;68.78;;;41.90;;
47772;SDS011;33534;51.028;13.716;2022-07-29T05:21:51;61.53;;;37.03;;
47772;SDS011;33534;51.028;13.716;2022-07-29T05:24:17;62.25;;;39.90;;
47772;SDS011;33534;51.028;13.716;2022-07-29T05:26:42;69.95;;;40.47;;
47772;SDS011;33534;51.028;13.716;2022-07-29T05:29:08;73.15;;;44.35;;
47772;SDS011;33534;51.028;13.716;2022-07-29T05:31:36;69.53;;;45.35;;
47772;SDS011;33534;51.028;13.716;2022-07-29T05:34:02;74.72;;;46.88;;
47772;SDS011;33534;51.028;13.716;2022-07-29T05:36:28;93.85;;;56.03;;
47772;SDS011;33534;51.028;13.716;2022-07-29T05:38:53;100.55;;;62.45;;
47772;SDS011;33534;51.028;13.716;2022-07-29T05:41:19;99.57;;;66.80;;
47772;SDS011;33534;51.028;13.716;2022-07-29T05:43:45;99.68;;;63.13;;
47772;SDS011;33534;51.028;13.716;2022-07-29T05:46:11;87.28;;;58.08;;
47772;SDS011;33534;51.028;13.716;2022-07-29T05:48:37;91.18;;;56.88;;
47772;SDS011;33534;51.028;13.716;2022-07-29T05:51:03;90.88;;;56.15;;
47772;SDS011;33534;51.028;13.716;2022-07-29T05:53:29;90.05;;;55.97;;
47772;SDS011;33534;51.028;13.716;2022-07-29T05:55:55;85.43;;;53.35;;
47772;SDS011;33534;51.028;13.716;2022-07-29T05:58:21;80.22;;;50.97;;
47772;SDS011;33534;51.028;13.716;2022-07-29T06:00:48;79.18;;;51.67;;
47772;SDS011;33534;51.028;13.716;2022-07-29T06:03:14;90.47;;;53.53;;
47772;SDS011;33534;51.028;13.716;2022-07-29T06:05:40;81.38;;;52.28;;
47772;SDS011;33534;51.028;13.716;2022-07-29T06:08:06;93.18;;;58.03;;
47772;SDS011;33534;51.028;13.716;2022-07-29T06:10:34;98.65;;;62.05;;
47772;SDS011;33534;51.028;13.716;2022-07-29T06:13:00;99.30;;;64.78;;
47772;SDS011;33534;51.028;13.716;2022-07-29T06:15:26;100.32;;;63.78;;
47772;SDS011;33534;51.028;13.716;2022-07-29T06:17:52;100.18;;;64.30;;
47772;SDS011;33534;51.028;13.716;2022-07-29T06:20:18;98.95;;;65.28;;
47772;SDS011;33534;51.028;13.716;2022-07-29T06:22:44;113.35;;;65.85;;
47772;SDS011;33534;51.028;13.716;2022-07-29T06:25:10;113.20;;;68.10;;
47772;SDS011;33534;51.028;13.716;2022-07-29T06:27:36;101.18;;;61.80;;
47772;SDS011;33534;51.028;13.716;2022-07-29T06:30:03;103.45;;;64.68;;
47772;SDS011;33534;51.028;13.716;2022-07-29T06:32:31;87.00;;;53.72;;
47772;SDS011;33534;51.028;13.716;2022-07-29T06:34:57;91.95;;;58.13;;
47772;SDS011;33534;51.028;13.716;2022-07-29T06:37:23;98.95;;;61.42;;
47772;SDS011;33534;51.028;13.716;2022-07-29T06:39:49;83.30;;;56.25;;
47772;SDS011;33534;51.028;13.716;2022-07-29T06:42:35;91.53;;;59.42;;
47772;SDS011;33534;51.028;13.716;2022-07-29T06:45:01;92.80;;;58.08;;
47772;SDS011;33534;51.028;13.716;2022-07-29T06:47:26;106.10;;;66.15;;
47772;SDS011;33534;51.028;13.716;2022-07-29T06:49:52;96.50;;;61.47;;
47772;SDS011;33534;51.028;13.716;2022-07-29T06:52:17;102.28;;;63.90;;
47772;SDS011;33534;51.028;13.716;2022-07-29T06:54:43;103.10;;;66.40;;
47772;SDS011;33534;51.028;13.716;2022-07-29T06:57:13;93.93;;;61.92;;
47772;SDS011;33534;51.028;13.716;2022-07-29T06:59:38;90.47;;;60.13;;
47772;SDS011;33534;51.028;13.716;2022-07-29T07:02:04;96.88;;;62.20;;
47772;SDS011;33534;51.028;13.716;2022-07-29T07:04:30;100.95;;;63.25;;
47772;SDS011;33534;51.028;13.716;2022-07-29T07:06:55;94.25;;;62.13;;
47772;SDS011;33534;51.028;13.716;2022-07-29T07:09:21;98.35;;;62.65;;
47772;SDS011;33534;51.028;13.716;2022-07-29T07:11:46;93.65;;;56.25;;
47772;SDS011;33534;51.028;13.716;2022-07-29T07:14:12;85.70;;;54.55;;
47772;SDS011;33534;51.028;13.716;2022-07-29T07:16:37;89.05;;;56.88;;
47772;SDS011;33534;51.028;13.716;2022-07-29T07:19:03;80.40;;;52.15;;
47772;SDS011;33534;51.028;13.716;2022-07-29T07:21:29;76.75;;;52.17;;
47772;SDS011;33534;51.028;13.716;2022-07-29T07:23:55;83.72;;;54.70;;
47772;SDS011;33534;51.028;13.716;2022-07-29T07:26:20;73.75;;;51.90;;
47772;SDS011;33534;51.028;13.716;2022-07-29T07:28:46;75.10;;;48.65;;
47772;SDS011;33534;51.028;13.716;2022-07-29T07:31:11;77.57;;;49.33;;
47772;SDS011;33534;51.028;13.716;2022-07-29T07:33:37;70.40;;;44.08;;
47772;SDS011;33534;51.028;13.716;2022-07-29T07:36:03;69.18;;;44.40;;
47772;SDS011;33534;51.028;13.716;2022-07-29T07:38:29;66.20;;;42.78;;
47772;SDS011;33534;51.028;13.716;2022-07-29T07:40:54;77.72;;;43.05;;
47772;SDS011;33534;51.028;13.716;2022-07-29T07:43:20;54.17;;;35.83;;
47772;SDS011;33534;51.028;13.716;2022-07-29T07:45:46;51.38;;;32.88;;
47772;SDS011;33534;51.028;13.716;2022-07-29T07:48:12;54.28;;;34.63;;
47772;SDS011;33534;51.028;13.716;2022-07-29T07:50:37;57.97;;;35.97;;
47772;SDS011;33534;51.028;13.716;2022-07-29T07:53:03;59.67;;;36.67;;
47772;SDS011;33534;51.028;13.716;2022-07-29T07:55:29;48.97;;;32.95;;
47772;SDS011;33534;51.028;13.716;2022-07-29T07:57:55;52.15;;;34.25;;
47772;SDS011;33534;51.028;13.716;2022-07-29T08:00:21;48.17;;;32.78;;
47772;SDS011;33534;51.028;13.716;2022-07-29T08:02:47;45.72;;;31.27;;
47772;SDS011;33534;51.028;13.716;2022-07-29T08:05:13;46.47;;;30.20;;
47772;SDS011;33534;51.028;13.716;2022-07-29T08:07:42;51.08;;;29.48;;
47772;SDS011;33534;51.028;13.716;2022-07-29T08:10:09;52.38;;;29.63;;
47772;SDS011;33534;51.028;13.716;2022-07-29T08:12:35;48.42;;;30.35;;
47772;SDS011;33534;51.028;13.716;2022-07-29T08:15:00;47.95;;;28.05;;
47772;SDS011;33534;51.028;13.716;2022-07-29T08:17:26;49.42;;;26.33;;
47772;SDS011;33534;51.028;13.716;2022-07-29T08:19:52;41.63;;;26.20;;
47772;SDS011;33534;51.028;13.716;2022-07-29T08:22:18;42.67;;;26.02;;
47772;SDS011;33534;51.028;13.716;2022-07-29T08:24:44;37.88;;;24.13;;
47772;SDS011;33534;51.028;13.716;2022-07-29T08:27:17;38.03;;;24.70;;
47772;SDS011;33534;51.028;13.716;2022-07-29T08:29:43;43.17;;;24.38;;
47772;SDS011;33534;51.028;13.716;2022-07-29T08:32:09;38.70;;;21.13;;
47772;SDS011;33534;51.028;13.716;2022-07-29T08:34:34;42.80;;;19.65;;
47772;SDS011;33534;51.028;13.716;2022-07-29T08:37:00;31.45;;;17.33;;
47772;SDS011;33534;51.028;13.716;2022-07-29T08:39:25;34.13;;;18.42;;
47772;SDS011;33534;51.028;13.716;2022-07-29T08:41:51;36.08;;;18.27;;
47772;SDS011;33534;51.028;13.716;2022-07-29T08:44:18;29.02;;;17.30;;
47772;SDS011;33534;51.028;13.716;2022-07-29T08:46:44;39.08;;;16.27;;
47772;SDS011;33534;51.028;13.716;2022-07-29T08:49:10;27.48;;;13.68;;
47772;SDS011;33534;51.028;13.716;2022-07-29T08:51:36;24.02;;;13.23;;
47772;SDS011;33534;51.028;13.716;2022-07-29T08:54:04;20.65;;;12.73;;
47772;SDS011;33534;51.028;13.716;2022-07-29T08:56:31;30.30;;;13.77;;
47772;SDS011;33534;51.028;13.716;2022-07-29T08:58:57;23.42;;;12.20;;
47772;SDS011;33534;51.028;13.716;2022-07-29T09:01:25;19.52;;;11.80;;
47772;SDS011;33534;51.028;13.716;2022-07-29T09:03:55;25.45;;;10.60;;
47772;SDS011;33534;51.028;13.716;2022-07-29T09:06:21;21.92;;;11.27;;
47772;SDS011;33534;51.028;13.716;2022-07-29T09:11:18;20.70;;;11.07;;
47772;SDS011;33534;51.028;13.716;2022-07-29T09:13:44;25.13;;;11.23;;
47772;SDS011;33534;51.028;13.716;2022-07-29T09:16:10;20.63;;;11.32;;
47772;SDS011;33534;51.028;13.716;2022-07-29T09:18:40;16.40;;;9.40;;
47772;SDS011;33534;51.028;13.716;2022-07-29T09:21:07;20.67;;;10.52;;
47772;SDS011;33534;51.028;13.716;2022-07-29T09:23:59;16.90;;;9.38;;
47772;SDS011;33534;51.028;13.716;2022-07-29T09:26:29;17.50;;;9.70;;
47772;SDS011;33534;51.028;13.716;2022-07-29T09:28:55;14.80;;;9.87;;
47772;SDS011;33534;51.028;13.716;2022-07-29T09:31:34;16.05;;;9.25;;
47772;SDS011;33534;51.028;13.716;2022-07-29T09:34:02;15.85;;;10.50;;
47772;SDS011;33534;51.028;13.716;2022-07-29T09:36:28;20.70;;;12.90;;
47772;SDS011;33534;51.028;13.716;2022-07-29T09:38:59;21.95;;;12.52;;
47772;SDS011;33534;51.028;13.716;2022-07-29T09:41:26;22.90;;;13.73;;
47772;SDS011;33534;51.028;13.716;2022-07-29T09:43:55;28.15;;;16.67;;
47772;SDS011;33534;51.028;13.716;2022-07-29T09:46:23;26.17;;;15.70;;
47772;SDS011;33534;51.028;13.716;2022-07-29T09:49:23;29.88;;;16.23;;
47772;SDS011;33534;51.028;13.716;2022-07-29T09:51:41;28.63;;;16.30;;
47772;SDS011;33534;51.028;13.716;2022-07-29T09:54:22;30.05;;;18.10;;
47772;SDS011;33534;51.028;13.716;2022-07-29T09:56:50;30.17;;;17.42;;
47772;SDS011;33534;51.028;13.716;2022-07-29T09:59:17;31.85;;;17.63;;
47772;SDS011;33534;51.028;13.716;2022-07-29T10:01:42;30.23;;;17.77;;
47772;SDS011;33534;51.028;13.716;2022-07-29T10:04:08;29.60;;;17.50;;
47772;SDS011;33534;51.028;13.716;2022-07-29T10:06:34;30.35;;;18.00;;
47772;SDS011;33534;51.028;13.716;2022-07-29T10:09:09;29.85;;;17.65;;
47772;SDS011;33534;51.028;13.716;2022-07-29T10:11:36;21.30;;;14.93;;
47772;SDS011;33534;51.028;13.716;2022-07-29T10:14:02;26.20;;;14.95;;
47772;SDS011;33534;51.028;13.716;2022-07-29T10:16:28;25.48;;;13.90;;
47772;SDS011;33534;51.028;13.716;2022-07-29T10:18:57;22.25;;;13.38;;
47772;SDS011;33534;51.028;13.716;2022-07-29T10:21:27;27.17;;;14.73;;
47772;SDS011;33534;51.028;13.716;2022-07-29T10:23:53;26.90;;;12.75;;
47772;SDS011;33534;51.028;13.716;2022-07-29T10:26:19;18.88;;;11.80;;
47772;SDS011;33534;51.028;13.716;2022-07-29T10:28:45;16.90;;;11.02;;
47772;SDS011;33534;51.028;13.716;2022-07-29T10:31:28;19.58;;;10.75;;
47772;SDS011;33534;51.028;13.716;2022-07-29T10:34:12;20.83;;;9.50;;
47772;SDS011;33534;51.028;13.716;2022-07-29T10:36:56;17.55;;;10.52;;
47772;SDS011;33534;51.028;13.716;2022-07-29T10:39:45;20.48;;;10.07;;
47772;SDS011;33534;51.028;13.716;2022-07-29T10:44:41;14.13;;;6.63;;
47772;SDS011;33534;51.028;13.716;2022-07-29T10:47:18;10.00;;;6.28;;
47772;SDS011;33534;51.028;13.716;2022-07-29T10:50:01;13.95;;;7.38;;
47772;SDS011;33534;51.028;13.716;2022-07-29T10:55:36;7.63;;;4.50;;
47772;SDS011;33534;51.028;13.716;2022-07-29T10:58:15;6.82;;;4.25;;
47772;SDS011;33534;51.028;13.716;2022-07-29T11:00:41;10.07;;;4.43;;
47772;SDS011;33534;51.028;13.716;2022-07-29T11:03:07;12.95;;;5.30;;
47772;SDS011;33534;51.028;13.716;2022-07-29T11:05:51;8.65;;;4.15;;
47772;SDS011;33534;51.028;13.716;2022-07-29T11:08:22;8.23;;;4.25;;
47772;SDS011;33534;51.028;13.716;2022-07-29T11:10:49;6.72;;;2.70;;
47772;SDS011;33534;51.028;13.716;2022-07-29T11:16:15;5.20;;;2.38;;
47772;SDS011;33534;51.028;13.716;2022-07-29T11:21:35;8.85;;;2.17;;
47772;SDS011;33534;51.028;13.716;2022-07-29T11:24:11;4.60;;;2.17;;
47772;SDS011;33534;51.028;13.716;2022-07-29T11:26:38;9.45;;;2.33;;
47772;SDS011;33534;51.028;13.716;2022-07-29T11:29:06;5.32;;;1.80;;
47772;SDS011;33534;51.028;13.716;2022-07-29T11:31:45;4.75;;;2.03;;
47772;SDS011;33534;51.028;13.716;2022-07-29T11:44:53;4.28;;;2.15;;
47772;SDS011;33534;51.028;13.716;2022-07-29T11:47:22;4.72;;;2.22;;
47772;SDS011;33534;51.028;13.716;2022-07-29T11:49:48;4.07;;;2.05;;
47772;SDS011;33534;51.028;13.716;2022-07-29T11:52:18;7.40;;;2.60;;
47772;SDS011;33534;51.028;13.716;2022-07-29T11:54:46;2.58;;;2.20;;
47772;SDS011;33534;51.028;13.716;2022-07-29T11:57:14;6.05;;;2.75;;
47772;SDS011;33534;51.028;13.716;2022-07-29T11:59:44;6.13;;;2.30;;
47772;SDS011;33534;51.028;13.716;2022-07-29T12:02:10;8.60;;;2.78;;
47772;SDS011;33534;51.028;13.716;2022-07-29T12:04:50;7.15;;;2.30;;
47772;SDS011;33534;51.028;13.716;2022-07-29T12:07:16;5.30;;;2.45;;
47772;SDS011;33534;51.028;13.716;2022-07-29T12:09:52;5.03;;;2.20;;
47772;SDS011;33534;51.028;13.716;2022-07-29T12:12:18;10.75;;;2.55;;
47772;SDS011;33534;51.028;13.716;2022-07-29T12:14:45;4.32;;;2.83;;
47772;SDS011;33534;51.028;13.716;2022-07-29T12:17:27;3.67;;;2.10;;
47772;SDS011;33534;51.028;13.716;2022-07-29T12:19:58;6.30;;;2.30;;
47772;SDS011;33534;51.028;13.716;2022-07-29T12:22:32;5.13;;;2.25;;
47772;SDS011;33534;51.028;13.716;2022-07-29T12:25:07;3.00;;;2.20;;
47772;SDS011;33534;51.028;13.716;2022-07-29T12:27:34;9.85;;;2.95;;
47772;SDS011;33534;51.028;13.716;2022-07-29T12:30:03;4.43;;;2.35;;
47772;SDS011;33534;51.028;13.716;2022-07-29T12:34:59;5.47;;;2.67;;
47772;SDS011;33534;51.028;13.716;2022-07-29T12:37:27;5.38;;;2.38;;
47772;SDS011;33534;51.028;13.716;2022-07-29T12:39:53;5.10;;;2.30;;
47772;SDS011;33534;51.028;13.716;2022-07-29T12:42:19;3.55;;;2.63;;
47772;SDS011;33534;51.028;13.716;2022-07-29T12:44:49;10.77;;;2.92;;
47772;SDS011;33534;51.028;13.716;2022-07-29T12:47:16;9.68;;;2.45;;
47772;SDS011;33534;51.028;13.716;2022-07-29T12:49:43;7.10;;;2.28;;
47772;SDS011;33534;51.028;13.716;2022-07-29T12:54:53;3.22;;;2.10;;
47772;SDS011;33534;51.028;13.716;2022-07-29T12:57:19;4.00;;;2.53;;
47772;SDS011;33534;51.028;13.716;2022-07-29T12:59:58;4.38;;;2.53;;
47772;SDS011;33534;51.028;13.716;2022-07-29T13:02:24;7.80;;;2.65;;
47772;SDS011;33534;51.028;13.716;2022-07-29T13:04:57;6.50;;;2.70;;
47772;SDS011;33534;51.028;13.716;2022-07-29T13:07:24;7.63;;;2.50;;
47772;SDS011;33534;51.028;13.716;2022-07-29T13:09:51;6.60;;;2.50;;
47772;SDS011;33534;51.028;13.716;2022-07-29T13:12:17;8.23;;;2.42;;
47772;SDS011;33534;51.028;13.716;2022-07-29T13:14:44;4.40;;;2.50;;
47772;SDS011;33534;51.028;13.716;2022-07-29T13:19:38;6.15;;;2.30;;
47772;SDS011;33534;51.028;13.716;2022-07-29T13:22:05;3.60;;;2.53;;
47772;SDS011;33534;51.028;13.716;2022-07-29T13:24:31;4.85;;;2.08;;
47772;SDS011;33534;51.028;13.716;2022-07-29T13:26:57;6.20;;;2.08;;
47772;SDS011;33534;51.028;13.716;2022-07-29T13:29:23;3.90;;;2.53;;
47772;SDS011;33534;51.028;13.716;2022-07-29T13:31:51;5.00;;;2.38;;
47772;SDS011;33534;51.028;13.716;2022-07-29T13:34:17;3.15;;;2.20;;
47772;SDS011;33534;51.028;13.716;2022-07-29T13:36:45;3.10;;;2.00;;
47772;SDS011;33534;51.028;13.716;2022-07-29T13:39:11;6.03;;;2.30;;
47772;SDS011;33534;51.028;13.716;2022-07-29T13:41:37;7.53;;;3.80;;
47772;SDS011;33534;51.028;13.716;2022-07-29T13:44:03;8.68;;;2.40;;
47772;SDS011;33534;51.028;13.716;2022-07-29T13:46:29;9.85;;;2.42;;
47772;SDS011;33534;51.028;13.716;2022-07-29T13:48:55;6.80;;;2.47;;
47772;SDS011;33534;51.028;13.716;2022-07-29T13:51:21;6.43;;;2.38;;
47772;SDS011;33534;51.028;13.716;2022-07-29T13:53:47;6.97;;;2.30;;
47772;SDS011;33534;51.028;13.716;2022-07-29T13:56:13;5.05;;;2.03;;
47772;SDS011;33534;51.028;13.716;2022-07-29T13:58:39;5.07;;;2.10;;
47772;SDS011;33534;51.028;13.716;2022-07-29T14:01:08;7.70;;;2.22;;
47772;SDS011;33534;51.028;13.716;2022-07-29T14:03:34;5.10;;;2.25;;
47772;SDS011;33534;51.028;13.716;2022-07-29T14:06:02;5.80;;;1.83;;
47772;SDS011;33534;51.028;13.716;2022-07-29T14:08:28;4.03;;;1.92;;
47772;SDS011;33534;51.028;13.716;2022-07-29T14:10:54;4.55;;;1.98;;
47772;SDS011;33534;51.028;13.716;2022-07-29T14:13:20;4.63;;;2.10;;
47772;SDS011;33534;51.028;13.716;2022-07-29T14:15:46;3.08;;;2.30;;
47772;SDS011;33534;51.028;13.716;2022-07-29T14:18:12;2.75;;;2.45;;
47772;SDS011;33534;51.028;13.716;2022-07-29T14:20:38;6.30;;;2.20;;
47772;SDS011;33534;51.028;13.716;2022-07-29T14:23:04;5.35;;;2.58;;
47772;SDS011;33534;51.028;13.716;2022-07-29T14:25:30;3.92;;;2.22;;
47772;SDS011;33534;51.028;13.716;2022-07-29T14:27:56;3.67;;;2.33;;
47772;SDS011;33534;51.028;13.716;2022-07-29T14:30:22;5.40;;;2.55;;
47772;SDS011;33534;51.028;13.716;2022-07-29T14:32:48;6.32;;;2.78;;
47772;SDS011;33534;51.028;13.716;2022-07-29T14:35:14;5.88;;;2.35;;
47772;SDS011;33534;51.028;13.716;2022-07-29T14:37:40;5.28;;;2.70;;
47772;SDS011;33534;51.028;13.716;2022-07-29T14:40:07;10.98;;;2.67;;
47772;SDS011;33534;51.028;13.716;2022-07-29T14:42:33;5.13;;;2.72;;
47772;SDS011;33534;51.028;13.716;2022-07-29T14:44:59;5.65;;;2.65;;
47772;SDS011;33534;51.028;13.716;2022-07-29T14:47:25;3.22;;;2.58;;
47772;SDS011;33534;51.028;13.716;2022-07-29T14:49:51;6.00;;;2.20;;
47772;SDS011;33534;51.028;13.716;2022-07-29T14:52:17;6.32;;;2.60;;
47772;SDS011;33534;51.028;13.716;2022-07-29T14:54:43;6.45;;;2.50;;
47772;SDS011;33534;51.028;13.716;2022-07-29T14:57:09;4.03;;;2.47;;
47772;SDS011;33534;51.028;13.716;2022-07-29T14:59:35;4.10;;;2.10;;
47772;SDS011;33534;51.028;13.716;2022-07-29T15:02:01;4.60;;;2.58;;
47772;SDS011;33534;51.028;13.716;2022-07-29T15:04:27;4.88;;;2.50;;
47772;SDS011;33534;51.028;13.716;2022-07-29T15:06:53;6.38;;;2.20;;
47772;SDS011;33534;51.028;13.716;2022-07-29T15:09:19;2.70;;;2.28;;
47772;SDS011;33534;51.028;13.716;2022-07-29T15:11:45;6.88;;;2.42;;
47772;SDS011;33534;51.028;13.716;2022-07-29T15:14:11;4.68;;;2.40;;
47772;SDS011;33534;51.028;13.716;2022-07-29T15:16:38;8.40;;;2.30;;